Lowest pressure

Not for real navigation. The accuracy of this data is not assured See disclaimer for more information



ICAO NAME COUNTRY WIND Kt GUST Kt VIS m TEMP/DEW C BARO METAR
SCRM 24 0 9999 -4/-5 28.94 SCRM 181200Z 26024KT 9999 BCFG FEW008 BKN018 M04/M05 Q0980
ENSB Svalbard Lufthavn Norway 11 0 9999 4/2 29.09 ENSB 181150Z 11011KT 9999 -RA SCT015 BKN020 04/02 Q0985 RMK WIND 1400FT 00000KT
RJAW Iwojima Japan 34 56 1600 26/25 29.26 RJAW 181200Z 15034G56KT 1600 SHRA BR FEW005 BKN008 BKN010 FEW010CB 26/25 Q0991 RMK 2ST005 5ST008 7CU
CYRB Resolute, N. W. T. Canada 8 0 32000 0/-2 29.26 CYRB 181216Z 17008KT 20SM BKN010 BKN012 M00/M02 A2926 RMK SC5SC2 SLP915
ENNE 30 0 9999 14/10 29.29 ENNE 181220Z 19030KT 9999 FEW015 SCT050 14/10 Q0992 W///S5

Show more